Flight Track Log - Related Links

Times and Time Zones

All times are in EDT time to prevent confusion due to time zone crossing. See the XOJ552 flight status page for this flight to view local times or setup timezone preferences in your user account.

Time Position Orientation Groundspeed Altitude Reporting Facility
EDT Latitude Longitude Course Direction KTS MPH feet Rate Location/Type
Sat 12:34:02 PM 40.8167 -74.1333 287° West 199 229 1,400  Level New York TRACON
Sat 12:35:02 PM 40.8167 -74.2000 270° West 218 251 3,200 2,750 Climbing New York TRACON
Sat 12:36:02 PM 40.8167 -74.3000 270° West 267 307 6,900 3,822 Climbing New York TRACON
Sat 12:37:17 PM 40.8817 -74.3775 318° Northwest 299 344 11,800 3,644 Climbing New York Center
Sat 12:38:17 PM 40.9456 -74.4606 316° Northwest 294 338 15,100 2,850 Climbing New York Center
Sat 12:39:00 PM 40.9978 -74.9426 287° West  Level Estimated
Sat 12:39:17 PM 41.0058 -74.5353 317° Northwest 317 365 17,500  Level New York Center
Sat 12:40:17 PM 41.0797 -74.6275 317° Northwest 337 388 20,300 2,850 Climbing New York Center
Sat 12:41:17 PM 41.1456 -74.7167 314° West 344 396 23,200 2,550 Climbing New York Center
Sat 12:42:17 PM 41.1919 -74.8242 300° West 337 388 25,400 2,500 Climbing New York Center
Sat 12:43:17 PM 41.2461 -74.9461 301° West 344 396 28,200 2,300 Climbing New York Center
Sat 12:44:17 PM 41.2922 -75.0536 300° West 344 396 30,000 1,550 Climbing New York Center
Sat 12:45:17 PM 41.3422 -75.1703 300° West 349 402 31,300 1,300 Climbing New York Center
Sat 12:46:17 PM 41.3939 -75.2897 300° West 362 417 32,600 1,500 Climbing New York Center
Sat 12:47:17 PM 41.4453 -75.4122 299° West 373 429 34,300 1,800 Climbing New York Center
Sat 12:48:17 PM 41.4886 -75.5314 296° West 373 429 36,200 1,750 Climbing New York Center
Sat 12:49:17 PM 41.5231 -75.6531 291° West 358 412 37,800 1,250 Climbing New York Center
Sat 12:50:17 PM 41.5581 -75.7639 293° West 351 404 38,700 800 Climbing New York Center
Sat 12:51:17 PM 41.5903 -75.8856 290° West 346 398 39,400 600 Climbing New York Center
Sat 12:52:17 PM 41.6161 -76.0094 286° West 346 398 39,900 500 Climbing New York Center
Sat 12:53:17 PM 41.6356 -76.1386 281° West 346 398 40,400 500 Climbing New York Center
Sat 12:54:17 PM 41.6544 -76.2708 281° West 358 412 40,900 119 Climbing New York Center
Sat 12:56:00 PM 41.6710 -76.4771 276° West  Level FlightAware Approximate
Sat 01:03:00 PM 41.7928 -77.5414 280° West  Level FlightAware Approximate
Sat 01:04:00 PM 41.8120 -77.6932 280° West  Level FlightAware Approximate
Sat 01:05:00 PM 41.8309 -77.8451 280° West  Level FlightAware Approximate
Sat 01:06:00 PM 41.8497 -77.9971 279° West  Level FlightAware Approximate
Sat 01:07:00 PM 41.8682 -78.1492 279° West  Level FlightAware Approximate
Sat 01:08:00 PM 41.8866 -78.3014 279° West  Level FlightAware Approximate
Sat 01:09:00 PM 41.9047 -78.4536 279° West  Level FlightAware Approximate
Sat 01:10:00 PM 41.9227 -78.6060 279° West  Level FlightAware Approximate
Sat 01:11:00 PM 41.9404 -78.7584 279° West  Level FlightAware Approximate
Sat 01:12:00 PM 41.9579 -78.9109 279° West  Level FlightAware Approximate
Sat 01:13:00 PM 41.9753 -79.0635 279° West  Level FlightAware Approximate
Sat 01:14:00 PM 41.9924 -79.2162 279° West  Level FlightAware Approximate
Sat 01:15:00 PM 42.0093 -79.3690 279° West  Level FlightAware Approximate
Sat 01:15:10 PM 42.0083 -79.1614 278° West 394 453 43,000  Level Cleveland Center
Sat 01:16:00 PM 42.0261 -79.5219 278° West  Level FlightAware Approximate
Sat 01:16:12 PM 42.0269 -79.3356 278° West 396 456 43,000  Level Cleveland Center
Sat 01:17:00 PM 42.0426 -79.6748 278° West  Level FlightAware Approximate
Sat 01:17:13 PM 42.0422 -79.4806 278° West 397 457 43,000  Level Cleveland Center
Sat 01:18:00 PM 42.0589 -79.8278 278° West  Level FlightAware Approximate
Sat 01:18:15 PM 42.0581 -79.6267 278° West 397 457 43,000  Level Cleveland Center
Sat 01:19:00 PM 42.0751 -79.9809 278° West  Level FlightAware Approximate
Sat 01:19:16 PM 42.0731 -79.7744 278° West 402 463 43,000  Level Cleveland Center
Sat 01:20:00 PM 42.0910 -80.1340 278° West  Level FlightAware Approximate
Sat 01:20:18 PM 42.0881 -79.9217 278° West 401 461 43,000  Level Cleveland Center
Sat 01:21:19 PM 42.1039 -80.0822 278° West 403 464 43,000  Level Cleveland Center
Sat 01:22:21 PM 42.1192 -80.2328 278° West 403 464 43,000  Level Cleveland Center
Sat 01:23:22 PM 42.1342 -80.3825 278° West 402 463 43,000  Level Cleveland Center
Sat 01:24:24 PM 42.1486 -80.5317 277° West 400 460 43,000  Level Cleveland Center
Sat 01:25:25 PM 42.1625 -80.6808 277° West 399 459 43,000  Level Cleveland Center
Sat 01:26:27 PM 42.1775 -80.8314 278° West 402 463 43,000  Level Cleveland Center
Sat 01:27:28 PM 42.1942 -81.0050 277° West 399 459 43,000  Level Cleveland Center
Sat 01:28:30 PM 42.2078 -81.1542 277° West 399 459 43,000  Level Cleveland Center
Sat 01:29:31 PM 42.2203 -81.3033 277° West 398 458 43,000  Level Cleveland Center
Sat 01:30:33 PM 42.2347 -81.4536 277° West 402 463 43,000  Level Cleveland Center
Sat 01:31:34 PM 42.2475 -81.6028 277° West 400 460 43,000  Level Cleveland Center
Sat 01:32:36 PM 42.2608 -81.7544 277° West 403 464 43,000  Level Cleveland Center
Sat 01:33:37 PM 42.2739 -81.9053 277° West 403 464 43,000  Level Cleveland Center
Sat 01:34:39 PM 42.2861 -82.0556 276° West 402 463 43,000  Level Cleveland Center
Sat 01:35:41 PM 42.3011 -82.2247 277° West 402 463 43,000  Level Cleveland Center
Sat 01:36:42 PM 42.3133 -82.3731 276° West 399 459 43,000  Level Cleveland Center
Sat 01:37:44 PM 42.3250 -82.5211 276° West 399 459 43,000  Level Cleveland Center
Sat 01:38:45 PM 42.3356 -82.6678 276° West 395 455 43,000  Level Cleveland Center
Sat 01:39:47 PM 42.3483 -82.8139 277° West 393 452 43,000  Level Cleveland Center
Sat 01:40:48 PM 42.3586 -82.9633 275° West 398 458 43,000  Level Cleveland Center
Sat 01:41:50 PM 42.3697 -83.1106 276° West 398 458 43,000  Level Cleveland Center
Sat 01:42:51 PM 42.3822 -83.2744 276° West 395 455 43,000  Level Cleveland Center
Sat 01:43:53 PM 42.3942 -83.4242 276° West 397 457 43,000  Level Cleveland Center
Sat 01:44:55 PM 42.4047 -83.5861 275° West 402 463 43,000  Level Cleveland Center
Sat 01:45:56 PM 42.4144 -83.7269 275° West 402 463 43,000  Level Cleveland Center
Sat 01:46:58 PM 42.4250 -83.8761 276° West 403 464 43,000  Level Cleveland Center
Sat 01:47:59 PM 42.4375 -84.0572 275° West 406 467 43,000  Level Cleveland Center
Sat 01:49:01 PM 42.4472 -84.2067 275° West 401 461 43,000  Level Cleveland Center
Sat 01:50:02 PM 42.4581 -84.3575 276° West 404 465 43,000  Level Cleveland Center
Sat 01:50:52 PM 42.4636 -84.4747 274° West 405 466 43,000  Level Chicago Center
Sat 01:51:54 PM 42.4744 -84.6247 276° West 403 464 43,000  Level Chicago Center
Sat 01:52:56 PM 42.4831 -84.7758 274° West 402 463 43,000  Level Chicago Center
Sat 01:53:57 PM 42.4939 -84.9581 275° West 404 465 43,000  Level Chicago Center
Sat 01:54:59 PM 42.5031 -85.1100 275° West 405 466 43,000  Level Chicago Center
Sat 01:56:01 PM 42.5108 -85.2642 274° West 410 472 43,000  Level Chicago Center
Sat 01:57:02 PM 42.5189 -85.4181 274° West 411 473 43,000  Level Chicago Center
Sat 01:58:04 PM 42.5275 -85.5742 274° West 414 476 43,000  Level Chicago Center
Sat 01:59:06 PM 42.5356 -85.7289 274° West 411 473 43,000  Level Chicago Center
Sat 02:00:08 PM 42.5439 -85.8853 274° West 414 476 43,000  Level Chicago Center
Sat 02:01:09 PM 42.5519 -86.0431 274° West 418 481 43,000  Level Chicago Center
Sat 02:02:11 PM 42.5589 -86.2017 273° West 418 481 43,000  Level Chicago Center
Sat 02:03:13 PM 42.5675 -86.3889 274° West 413 475 43,000  Level Chicago Center
Sat 02:04:14 PM 42.5739 -86.5469 273° West 416 479 43,000  Level Chicago Center
Sat 02:05:16 PM 42.5814 -86.7025 274° West 415 478 43,000  Level Chicago Center
Sat 02:06:18 PM 42.5878 -86.8589 273° West 414 476 43,000  Level Chicago Center
Sat 02:07:19 PM 42.5942 -87.0161 273° West 418 481 43,000  Level Chicago Center
Sat 02:08:22 PM 42.6006 -87.1694 273° West 410 472 43,000  Level Chicago Center
Sat 02:09:23 PM 42.6064 -87.3272 273° West 417 480 43,000  Level Chicago Center
Sat 02:10:24 PM 42.6125 -87.4978 273° West 415 478 43,000  Level Chicago Center
Sat 02:11:26 PM 42.6183 -87.6567 273° West 419 482 43,000  Level Chicago Center
Sat 02:12:28 PM 42.6236 -87.8139 273° West 416 479 43,000  Level Chicago Center
Sat 02:13:29 PM 42.6289 -87.9692 273° West 413 475 43,000 244 Level Chicago Center
Sat 02:14:31 PM 42.6344 -88.1575 272° West 415 478 43,500 435 Climbing Chicago Center
Sat 02:15:33 PM 42.6389 -88.3103 272° West 408 470 43,900 484 Climbing Chicago Center
Sat 02:16:35 PM 42.6431 -88.4597 272° West 400 460 44,500 537 Climbing Chicago Center
Sat 02:17:36 PM 42.6472 -88.6072 272° West 393 452 45,000 244 Climbing Chicago Center
Sat 02:18:38 PM 42.6508 -88.7533 272° West 388 447 45,000  Level Chicago Center
Sat 02:19:40 PM 42.6547 -88.9036 272° West 394 453 45,000  Level Chicago Center
Sat 02:20:41 PM 42.6578 -89.0542 272° West 398 458 45,000  Level Chicago Center
Sat 02:21:43 PM 42.6614 -89.2075 272° West 404 465 45,000  Level Chicago Center
Sat 02:22:45 PM 42.6656 -89.3919 272° West 408 470 45,000  Level Chicago Center
Sat 02:23:47 PM 42.6681 -89.5444 271° West 406 467 45,000  Level Chicago Center
Sat 02:24:49 PM 42.6717 -89.6978 272° West 406 467 45,000  Level Chicago Center
Sat 02:25:51 PM 42.6731 -89.8508 271° West 406 467 45,000  Level Chicago Center
Sat 02:26:52 PM 42.6764 -90.0072 272° West 408 470 45,000  Level Chicago Center
Sat 02:27:54 PM 42.6756 -90.1622 270° West 414 476 45,000  Level Chicago Center
Sat 02:28:56 PM 42.6783 -90.3147 271° West 410 472 45,000  Level Chicago Center
Sat 02:29:58 PM 42.6806 -90.4997 271° West 411 473 45,000  Level Chicago Center
Sat 02:31:00 PM 42.6831 -90.6528 271° West 411 473 45,000  Level Chicago Center
Sat 02:32:02 PM 42.6836 -90.8072 270° West 411 473 45,000  Level Chicago Center
Sat 02:33:03 PM 42.6858 -90.9619 271° West 413 475 45,000  Level Chicago Center
Sat 02:34:05 PM 42.6869 -91.1186 271° West 418 481 45,000  Level Chicago Center
Sat 02:35:07 PM 42.6878 -91.2736 270° West 415 478 45,000  Level Chicago Center
Sat 02:36:09 PM 42.6872 -91.4617 270° West 416 479 45,000  Level Chicago Center
Sat 02:37:11 PM 42.6864 -91.6200 270° West 411 473 45,000  Level Chicago Center
Sat 02:38:13 PM 42.6872 -91.7814 270° West 417 480 45,000  Level Chicago Center
Sat 02:39:15 PM 42.6867 -91.9372 270° West 414 476 45,000  Level Chicago Center
Sat 02:40:17 PM 42.6853 -92.0936 269° West 416 479 45,000  Level Chicago Center
Sat 02:41:19 PM 42.6847 -92.2525 270° West 421 484 45,000  Level Chicago Center
Sat 02:42:20 PM 42.6825 -92.4114 269° West 422 486 45,000  Level Chicago Center
Sat 02:44:00 PM 42.6782 -92.5946 268° West  Level FlightAware Approximate
Sat 02:49:34 PM 42.6653 -93.5797 268° West 417 480 45,000  Level Chicago Center
Sat 02:50:36 PM 42.6614 -93.7358 268° West 416 479 45,000  Level Chicago Center
Sat 02:51:00 PM 42.6572 -93.6781 269° West  Level FlightAware Approximate
Sat 02:51:37 PM 42.6581 -93.8883 268° West 412 474 45,000  Level Chicago Center
Sat 02:52:00 PM 42.6544 -93.8329 269° West  Level FlightAware Approximate
Sat 02:52:39 PM 42.6606 -94.0433 271° West 412 474 45,000  Level Chicago Center
Sat 02:53:00 PM 42.6514 -93.9876 269° West  Level FlightAware Approximate
Sat 02:53:41 PM 42.6581 -94.1967 269° West 410 472 45,000  Level Chicago Center
Sat 02:54:00 PM 42.6481 -94.1424 268° West  Level FlightAware Approximate
Sat 02:55:00 PM 42.6447 -94.2971 268° West  Level FlightAware Approximate
Sat 02:55:08 PM 42.6536 -94.4442 269° West 412 474 45,000  Level Minneapolis Center
Sat 02:56:10 PM 42.6494 -94.6014 268° West 414 476 45,000  Level Minneapolis Center
Sat 02:57:12 PM 42.6447 -94.7442 267° West 409 471 45,000  Level Minneapolis Center
Sat 02:58:13 PM 42.6419 -94.9033 269° West 418 481 45,000  Level Minneapolis Center
Sat 02:59:15 PM 42.6358 -95.0906 268° West 415 478 45,000  Level Minneapolis Center
Sat 03:00:20 PM 42.6308 -95.2469 268° West 416 479 45,000  Level Minneapolis Center
Sat 03:01:22 PM 42.6264 -95.4028 268° West 416 479 45,000  Level Minneapolis Center
Sat 03:02:23 PM 42.6211 -95.5603 267° West 418 481 45,000  Level Minneapolis Center
Sat 03:03:25 PM 42.6158 -95.7178 267° West 419 482 45,000  Level Minneapolis Center
Sat 03:04:26 PM 42.6086 -95.9006 267° West 409 471 45,000  Level Minneapolis Center
Sat 03:05:28 PM 42.6028 -96.0589 267° West 415 478 45,000  Level Minneapolis Center
Sat 03:06:29 PM 42.5964 -96.2158 267° West 418 481 45,000  Level Minneapolis Center
Sat 03:07:31 PM 42.5900 -96.3747 267° West 420 483 45,000  Level Minneapolis Center
Sat 03:08:32 PM 42.5833 -96.5325 267° West 420 483 45,000  Level Minneapolis Center
Sat 03:09:33 PM 42.5756 -96.6894 266° West 419 482 45,000  Level Minneapolis Center
Sat 03:10:35 PM 42.5694 -96.8450 267° West 417 480 45,000  Level Minneapolis Center
Sat 03:11:36 PM 42.5622 -97.0033 267° West 420 483 45,000  Level Minneapolis Center
Sat 03:12:38 PM 42.5536 -97.1906 266° West 418 481 45,000  Level Minneapolis Center
Sat 03:13:39 PM 42.5453 -97.3475 266° West 419 482 45,000  Level Minneapolis Center
Sat 03:14:41 PM 42.5378 -97.5064 266° West 422 486 45,000  Level Minneapolis Center
Sat 03:15:42 PM 42.5286 -97.6642 266° West 421 484 45,000  Level Minneapolis Center
Sat 03:16:44 PM 42.5211 -97.8250 266° West 427 491 45,000  Level Minneapolis Center
Sat 03:17:45 PM 42.5117 -97.9881 266° West 424 488 45,000  Level Minneapolis Center
Sat 03:18:47 PM 42.5019 -98.1469 265° West 424 488 45,000  Level Minneapolis Center
Sat 03:19:48 PM 42.4931 -98.3056 266° West 423 487 45,000  Level Minneapolis Center
Sat 03:20:49 PM 42.4839 -98.4633 266° West 422 486 45,000  Level Minneapolis Center
Sat 03:21:51 PM 42.4719 -98.6542 265° West 424 488 45,000  Level Minneapolis Center
Sat 03:22:52 PM 42.4658 -98.8139 267° West 424 488 45,000  Level Minneapolis Center
Sat 03:23:54 PM 42.4606 -98.9728 267° West 425 489 45,000  Level Minneapolis Center
Sat 03:24:55 PM 42.4547 -99.1303 267° West 421 484 45,000  Level Minneapolis Center
Sat 03:25:52 PM 42.4486 -99.2894 267° West 423 487 45,000  Level Denver Center
Sat 03:26:53 PM 42.4425 -99.4489 267° West 426 490 45,000  Level Denver Center
Sat 03:27:55 PM 42.4361 -99.6072 267° West 422 486 45,000  Level Denver Center
Sat 03:28:56 PM 42.4297 -99.7658 267° West 424 488 45,000  Level Denver Center
Sat 03:29:58 PM 42.4219 -99.9311 266° West 427 491 45,000  Level Denver Center
Sat 03:31:00 PM 42.4144 -100.1081 267° West 425 489 45,000  Level Denver Center
Sat 03:32:01 PM 42.4078 -100.2606 267° West 425 489 45,000  Level Denver Center
Sat 03:33:03 PM 42.4011 -100.4139 267° West 427 491 45,000  Level Denver Center
Sat 03:34:04 PM 42.3914 -100.5928 266° West 429 494 45,000  Level Denver Center
Sat 03:35:06 PM 42.3839 -100.7464 266° West 429 494 45,000  Level Denver Center
Sat 03:36:07 PM 42.3756 -100.9256 266° West 429 494 45,000  Level Denver Center
Sat 03:37:09 PM 42.3669 -101.0808 266° West 433 498 45,000  Level Denver Center
Sat 03:38:11 PM 42.3572 -101.2594 266° West 429 494 45,000  Level Denver Center
Sat 03:39:12 PM 42.3494 -101.4147 266° West 433 498 45,000  Level Denver Center
Sat 03:40:14 PM 42.3389 -101.5711 265° West 437 503 45,000  Level Denver Center
Sat 03:41:15 PM 42.3286 -101.7506 266° West 432 497 45,000  Level Denver Center
Sat 03:42:17 PM 42.3186 -101.9061 265° West 439 505 45,000  Level Denver Center
Sat 03:43:18 PM 42.3072 -102.0881 265° West 436 502 45,000  Level Denver Center
Sat 03:44:20 PM 42.2978 -102.2444 265° West 436 502 45,000  Level Denver Center
Sat 03:45:22 PM 42.2847 -102.4281 265° West 440 506 45,000  Level Denver Center
Sat 03:46:23 PM 42.2758 -102.5825 266° West 435 501 45,000  Level Denver Center
Sat 03:47:25 PM 42.2653 -102.7378 265° West 435 501 45,000  Level Denver Center
Sat 03:48:26 PM 42.2533 -102.9194 265° West 435 501 45,000  Level Denver Center
Sat 03:49:28 PM 42.2419 -103.0736 264° West 433 498 45,000  Level Denver Center
Sat 03:50:29 PM 42.2286 -103.2544 264° West 432 497 45,000  Level Denver Center
Sat 03:51:31 PM 42.2175 -103.4089 265° West 432 497 45,000  Level Denver Center
Sat 03:52:33 PM 42.2036 -103.5894 264° West 433 498 45,000  Level Denver Center
Sat 03:53:34 PM 42.1928 -103.7439 265° West 432 497 45,000  Level Denver Center
Sat 03:54:36 PM 42.1803 -103.9003 264° West 435 501 45,000  Level Denver Center
Sat 03:55:37 PM 42.1658 -104.0822 264° West 438 504 45,000  Level Denver Center
Sat 03:56:39 PM 42.1522 -104.2389 263° West 439 505 45,000  Level Denver Center
Sat 03:57:40 PM 42.1400 -104.3961 264° West 440 506 45,000  Level Denver Center
Sat 03:58:42 PM 42.1247 -104.5778 264° West 435 501 45,000  Level Denver Center
Sat 03:59:45 PM 42.1119 -104.7322 264° West 431 496 45,000  Level Denver Center
Sat 04:00:47 PM 42.0964 -104.9125 263° West 432 497 45,000  Level Denver Center
Sat 04:01:48 PM 42.0822 -105.0669 263° West 433 498 45,000  Level Denver Center
Sat 04:02:50 PM 42.0703 -105.2467 265° West 432 497 45,000  Level Denver Center
Sat 04:03:51 PM 42.0636 -105.4033 267° West 436 502 45,000  Level Denver Center
Sat 04:04:53 PM 42.0567 -105.5558 267° West 431 496 45,000  Level Denver Center
Sat 04:05:54 PM 42.0478 -105.7347 266° West 429 494 45,000  Level Denver Center
Sat 04:06:56 PM 42.0406 -105.8908 266° West 434 499 45,000  Level Denver Center
Sat 04:07:57 PM 42.0328 -106.0742 267° West 437 503 45,000  Level Denver Center
Sat 04:08:59 PM 42.0244 -106.2306 266° West 439 505 45,000  Level Denver Center
Sat 04:10:00 PM 42.0158 -106.3872 266° West 439 505 45,000  Level Denver Center
Sat 04:11:02 PM 42.0075 -106.5592 266° West 442 509 45,000  Level Denver Center
Sat 04:12:03 PM 41.9967 -106.7417 265° West 439 505 45,000  Level Denver Center
Sat 04:13:05 PM 41.9889 -106.8992 266° West 441 507 45,000  Level Denver Center
Sat 04:14:06 PM 41.9778 -107.0814 265° West 440 506 45,000  Level Denver Center
Sat 04:15:08 PM 41.9694 -107.2389 266° West 441 507 45,000  Level Denver Center
Sat 04:16:09 PM 41.9606 -107.3950 266° West 440 506 45,000  Level Denver Center
Sat 04:17:11 PM 41.9486 -107.5778 265° West 442 509 45,000  Level Denver Center
Sat 04:17:41 PM 41.9417 -107.6569 263° West 443 510 45,000  Level Salt Lake Center
Sat 04:18:43 PM 41.9328 -107.8131 266° West 439 505 45,000  Level Salt Lake Center
Sat 04:19:44 PM 41.9206 -107.9967 265° West 442 509 45,000  Level Salt Lake Center
Sat 04:20:45 PM 41.9103 -108.1556 265° West 448 516 45,000  Level Salt Lake Center
Sat 04:21:47 PM 41.8981 -108.3375 265° West 441 507 45,000  Level Salt Lake Center
Sat 04:22:48 PM 41.8867 -108.4936 264° West 441 507 45,000  Level Salt Lake Center
Sat 04:23:50 PM 41.8756 -108.6500 265° West 442 509 45,000  Level Salt Lake Center
Sat 04:24:51 PM 41.8614 -108.8314 264° West 441 507 45,000  Level Salt Lake Center
Sat 04:25:52 PM 41.8503 -108.9875 265° West 442 509 45,000  Level Salt Lake Center
Sat 04:26:54 PM 41.8361 -109.1689 264° West 441 507 45,000  Level Salt Lake Center
Sat 04:27:55 PM 41.8247 -109.3233 264° West 440 506 45,000  Level Salt Lake Center
Sat 04:28:57 PM 41.8094 -109.5056 264° West 443 510 45,000  Level Salt Lake Center
Sat 04:29:58 PM 41.7978 -109.6592 264° West 438 504 45,000  Level Salt Lake Center
Sat 04:30:59 PM 41.7819 -109.8403 263° West 441 507 45,000  Level Salt Lake Center
Sat 04:32:01 PM 41.7697 -109.9933 264° West 436 502 45,000  Level Salt Lake Center
Sat 04:33:02 PM 41.7558 -110.1483 263° West 439 505 45,000  Level Salt Lake Center
Sat 04:34:04 PM 41.7411 -110.3272 264° West 435 501 45,000  Level Salt Lake Center
Sat 04:35:05 PM 41.7269 -110.4814 263° West 436 502 45,000  Level Salt Lake Center
Sat 04:36:07 PM 41.7103 -110.6594 263° West 434 499 45,000  Level Salt Lake Center
Sat 04:37:08 PM 41.6956 -110.8128 263° West 435 501 45,000  Level Salt Lake Center
Sat 04:38:10 PM 41.6817 -110.9714 263° West 434 499 45,000  Level Salt Lake Center
Sat 04:39:11 PM 41.6661 -111.1311 263° West 435 501 45,000  Level Salt Lake Center
Sat 04:40:13 PM 41.6506 -111.2897 263° West 434 499 45,000  Level Salt Lake Center
Sat 04:41:14 PM 41.6325 -111.4811 263° West 436 502 45,000  Level Salt Lake Center
Sat 04:42:16 PM 41.6175 -111.6386 263° West 432 497 45,000  Level Salt Lake Center
Sat 04:43:17 PM 41.6022 -111.7939 263° West 428 493 45,000  Level Salt Lake Center
Sat 04:44:18 PM 41.5861 -111.9508 262° West 431 496 45,000  Level Salt Lake Center
Sat 04:45:20 PM 41.5694 -112.1072 262° West 430 495 45,000  Level Salt Lake Center
Sat 04:46:21 PM 41.5542 -112.2636 263° West 429 494 45,000  Level Salt Lake Center
Sat 04:47:23 PM 41.5372 -112.4200 262° West 429 494 45,000  Level Salt Lake Center
Sat 04:48:24 PM 41.5167 -112.6061 262° West 426 490 45,000  Level Salt Lake Center
Sat 04:49:26 PM 41.4978 -112.7619 261° West 428 493 45,000  Level Salt Lake Center
Sat 04:50:27 PM 41.4789 -112.9175 261° West 428 493 45,000  Level Salt Lake Center
Sat 04:51:29 PM 41.4581 -113.0728 260° West 427 491 45,000  Level Salt Lake Center
Sat 04:52:30 PM 41.4244 -113.2239 254° West 426 490 45,000  Level Salt Lake Center
Sat 04:53:32 PM 41.3844 -113.3750 251° West 432 497 45,000  Level Salt Lake Center
Sat 04:54:33 PM 41.3461 -113.5258 251° West 433 498 45,000  Level Salt Lake Center
Sat 04:55:35 PM 41.3008 -113.7061 252° West 430 495 45,000  Level Salt Lake Center
Sat 04:56:36 PM 41.2614 -113.8569 251° West 433 498 45,000  Level Salt Lake Center
Sat 04:57:38 PM 41.2233 -114.0075 251° West 432 497 45,000  Level Salt Lake Center
Sat 04:58:39 PM 41.1847 -114.1581 251° West 432 497 45,000  Level Salt Lake Center
Sat 04:59:41 PM 41.1450 -114.3081 251° West 432 497 45,000  Level Salt Lake Center
Sat 05:00:42 PM 41.1050 -114.4589 251° West 434 499 45,000  Level Salt Lake Center
Sat 05:01:43 PM 41.0664 -114.6106 251° West 435 501 45,000  Level Salt Lake Center
Sat 05:02:45 PM 41.0242 -114.7706 251° West 436 502 45,000  Level Salt Lake Center
Sat 05:03:46 PM 40.9778 -114.9394 250° West 436 502 45,000  Level Salt Lake Center
Sat 05:04:48 PM 40.9358 -115.0844 249° West 440 506 45,000  Level Salt Lake Center
Sat 05:05:49 PM 40.8972 -115.2283 250° West 436 502 45,000  Level Salt Lake Center
Sat 05:06:51 PM 40.8503 -115.3972 250° West 437 503 45,000  Level Salt Lake Center
Sat 05:07:52 PM 40.8108 -115.5428 250° West 439 505 45,000  Level Salt Lake Center
Sat 05:08:54 PM 40.7653 -115.7125 251° West 440 506 45,000  Level Salt Lake Center
Sat 05:09:55 PM 40.7236 -115.8572 249° West 440 506 45,000  Level Salt Lake Center
Sat 05:10:57 PM 40.6836 -116.0033 250° West 441 507 45,000  Level Salt Lake Center
Sat 05:11:59 PM 40.6358 -116.1739 250° West 444 511 45,000  Level Salt Lake Center
Sat 05:13:00 PM 40.5950 -116.3206 250° West 446 513 45,000  Level Salt Lake Center
Sat 05:14:02 PM 40.5464 -116.4903 249° West 445 512 45,000  Level Salt Lake Center
Sat 05:15:03 PM 40.5047 -116.6356 249° West 444 511 45,000  Level Salt Lake Center
Sat 05:16:05 PM 40.4628 -116.7786 249° West 445 512 45,000  Level Salt Lake Center
Sat 05:17:06 PM 40.4092 -116.9586 249° West 443 510 45,000  Level Salt Lake Center
Sat 05:18:08 PM 40.3669 -117.1108 250° West 448 516 45,000  Level Salt Lake Center
Sat 05:19:09 PM 40.3244 -117.2550 249° West 446 513 45,000  Level Salt Lake Center
Sat 05:20:11 PM 40.2739 -117.4219 248° West 444 511 45,000  Level Salt Lake Center
Sat 05:21:13 PM 40.2311 -117.5656 249° West 442 509 45,000  Level Salt Lake Center
Sat 05:22:14 PM 40.1814 -117.7342 249° West 444 511 45,000  Level Salt Lake Center
Sat 05:23:16 PM 40.1369 -117.8783 248° West 447 514 45,000  Level Salt Lake Center
Sat 05:23:56 PM 40.1058 -117.9853 249° West 446 513 45,000  Level Oakland Center
Sat 05:24:58 PM 40.0608 -118.1358 249° West 447 514 45,000  Level Oakland Center
Sat 05:25:59 PM 40.0150 -118.2847 248° West 445 512 45,000  Level Oakland Center
Sat 05:27:00 PM 39.9683 -118.4350 248° West 446 513 45,000  Level Oakland Center
Sat 05:28:01 PM 39.9217 -118.5861 248° West 451 519 45,000  Level Oakland Center
Sat 05:29:02 PM 39.8761 -118.7361 248° West 452 520 45,000  Level Oakland Center
Sat 05:30:03 PM 39.8281 -118.8858 247° West 453 521 45,000 -1,082 Level Oakland Center
Sat 05:31:04 PM 39.7700 -119.0678 248° West 457 526 42,800 -2,000 Descending Oakland Center
Sat 05:32:06 PM 39.7228 -119.2183 248° West 455 524 40,900 -1,902 Descending Oakland Center
Sat 05:33:07 PM 39.6750 -119.3672 247° West 452 520 38,900 -2,016 Descending Oakland Center
Sat 05:34:08 PM 39.6281 -119.5169 248° West 450 518 36,800 -1,967 Descending Oakland Center
Sat 05:35:09 PM 39.5786 -119.6722 248° West 467 537 34,900 -1,967 Descending Oakland Center
Sat 05:36:10 PM 39.5267 -119.8308 247° West 478 550 32,800 -2,115 Descending Oakland Center
Sat 05:37:11 PM 39.4744 -119.9883 247° West 479 551 30,600 -2,213 Descending Oakland Center
Sat 05:38:12 PM 39.4225 -120.1542 248° West 475 547 28,300 -2,213 Descending Oakland Center
Sat 05:39:13 PM 39.3722 -120.3072 247° West 466 536 26,100 -2,049 Descending Oakland Center
Sat 05:40:15 PM 39.3231 -120.4561 247° West 455 524 24,100 -1,024 Descending Oakland Center
Sat 05:41:16 PM 39.2764 -120.5931 246° West 425 489 24,000 -49 Descending Oakland Center
Sat 05:42:17 PM 39.2297 -120.7339 247° West 426 490 24,000  Level Oakland Center
Sat 05:43:18 PM 39.1731 -120.9036 247° West 430 495 24,000  Level Oakland Center
Sat 05:44:19 PM 39.1258 -121.0450 247° West 431 496 24,000 -590 Level Oakland Center
Sat 05:45:20 PM 39.0781 -121.1850 246° West 431 496 22,800 -1,366 Descending Oakland Center
Sat 05:46:22 PM 39.0314 -121.3217 246° West 427 491 21,200 -1,561 Descending Oakland Center
Sat 05:47:23 PM 38.9847 -121.4567 246° West 421 484 19,600 -1,574 Descending Oakland Center
Sat 05:48:24 PM 38.9389 -121.5906 246° West 414 476 18,000 -1,525 Descending Oakland Center
Sat 05:49:25 PM 38.8950 -121.7175 246° West 398 458 16,500 -1,512 Descending Oakland Center
Sat 05:50:27 PM 38.8519 -121.8403 246° West 384 442 14,900 -1,561 Descending Oakland Center
Sat 05:51:28 PM 38.8100 -121.9619 246° West 377 434 13,300 -1,426 Descending Oakland Center
Sat 05:52:29 PM 38.7600 -122.1014 245° Southwest 363 418 12,000 -738 Descending Oakland Center
Sat 05:53:30 PM 38.7211 -122.2139 246° West 351 404 11,800 -634 Descending Oakland Center
Sat 05:54:32 PM 38.6828 -122.3211 245° Southwest 337 388 10,700 -1,317 Descending Oakland Center
Sat 05:55:33 PM 38.6492 -122.4158 246° West 296 341 9,100 -1,721 Descending Oakland Center
Sat 05:56:34 PM 38.6169 -122.5061 245° Southwest 282 325 7,200 -1,033 Descending Oakland Center
Sat 05:57:35 PM 38.5869 -122.5939 246° West 274 315 7,000 -246 Descending Oakland Center
Sat 05:58:36 PM 38.5942 -122.6786 276° West 262 302 6,700 -829 Descending Oakland Center
Sat 05:59:38 PM 38.6361 -122.7433 310° West 249 287 5,300 -1,415 Descending Oakland Center
Sat 06:00:39 PM 38.6525 -122.8172 286° West 249 287 3,800 -1,180 Descending Oakland Center
Sat 06:01:40 PM 38.6017 -122.8619 215° Southwest 222 255 2,900 -1,082 Descending Oakland Center
Sat 06:02:41 PM 38.5633 -122.8397 156° South 176 203 1,600 -1,230 Descending Oakland Center
Sat 06:03:42 PM 38.5278 -122.8194 156° South 155 178 400 -1,180 Descending Oakland Center

Login

Don't have an account? Register now (free) for customized features, flight alerts, and more!